Time;durP1;ratioP1;P1;durP2;ratioP2;P2;SDS_P1;SDS_P2;PMS_P1;PMS_P2;Temp;Humidity;BMP_temperature;BMP_pressure;BME280_temperature;BME280_humidity;BME280_pressure;Samples;Min_cycle;Max_cycle;Signal;HPM_P1;HPM_P2
2022/09/19 00:00:24;;;;;;;;;1.00;1.00;;;;;18.20;48.68;-19694.75;4995300;28;45486;-70
2022/09/19 00:02:50;;;;;;;;;1.00;1.00;;;;;18.01;48.54;-19689.78;4995647;28;45429;-71
2022/09/19 00:05:15;;;;;;;;;1.33;1.33;;;;;18.13;48.50;-19693.13;4995145;28;46214;-70
2022/09/19 00:07:42;;;;;;;;;2.00;1.00;;;;;18.02;48.50;-19690.19;4994894;28;45575;-70
2022/09/19 00:10:09;;;;;;;;;1.00;1.00;;;;;18.18;48.90;-19694.34;4995255;28;45439;-71
2022/09/19 00:12:34;;;;;;;;;1.00;1.00;;;;;18.13;49.20;-19693.00;4977741;28;45637;-70
2022/09/19 00:15:00;;;;;;;;;1.33;1.33;;;;;18.10;48.99;-19692.34;4961262;28;46025;-70
2022/09/19 00:17:25;;;;;;;;;1.00;1.00;;;;;18.08;48.97;-19691.66;4995073;28;45500;-70
2022/09/19 00:19:51;;;;;;;;;3.00;1.00;;;;;18.05;49.15;-19690.84;4995108;28;45376;-71
2022/09/19 00:22:16;;;;;;;;;1.00;1.00;;;;;17.94;49.44;-19688.06;4995573;28;45517;-71
2022/09/19 00:24:49;;;;;;;;;2.00;2.00;;;;;18.02;49.18;-19358.50;4981150;28;45654;-71
2022/09/19 00:27:26;;;;;;;;;2.00;2.00;;;;;18.00;49.11;-19462.59;4994992;28;45388;-71
2022/09/19 00:29:53;;;;;;;;;1.33;1.00;;;;;18.02;49.21;-19096.91;4981612;28;45341;-70
2022/09/19 00:32:23;;;;;;;;;1.00;1.00;;;;;18.03;49.52;-19690.47;4995061;28;45309;-70
2022/09/19 00:34:50;;;;;;;;;1.67;1.00;;;;;17.96;49.15;-17980.81;4994642;28;46376;-70
2022/09/19 00:37:19;;;;;;;;;0.67;0.33;;;;;17.95;49.82;-15810.91;4994923;28;45299;-70
2022/09/19 00:39:44;;;;;;;;;1.00;1.00;;;;;18.01;49.25;-18034.47;4961495;28;45405;-70
2022/09/19 00:42:16;;;;;;;;;1.00;1.00;;;;;18.00;49.50;-15908.69;4984991;28;45432;-70
2022/09/19 00:44:41;;;;;;;;;1.00;1.00;;;;;17.98;49.87;-10458.66;4994630;28;49057;-79
2022/09/19 00:47:17;;;;;;;;;2.67;1.33;;;;;17.93;49.67;963.22;4994666;28;45350;-78
2022/09/19 00:49:48;;;;;;;;;2.00;2.00;;;;;17.98;49.74;-5996.22;4994649;28;45281;-79
2022/09/19 00:52:21;;;;;;;;;1.00;1.00;;;;;17.96;49.70;-10067.75;4973888;28;45321;-79
2022/09/19 00:54:49;;;;;;;;;1.00;1.00;;;;;17.93;50.03;4393.66;4990151;28;45297;-79
2022/09/19 00:57:16;;;;;;;;;1.00;1.00;;;;;17.91;49.62;3530.22;4994426;28;45495;-79
2022/09/19 00:59:47;;;;;;;;;1.33;1.33;;;;;17.92;50.05;6578.47;4962447;28;45523;-78
2022/09/19 01:02:19;;;;;;;;;1.00;1.00;;;;;17.89;49.99;19586.47;4978029;28;45338;-78
2022/09/19 01:04:44;;;;;;;;;2.00;2.00;;;;;17.74;50.01;22350.16;4981880;28;45306;-78
2022/09/19 01:07:43;;;;;;;;;1.00;1.00;;;;;17.85;50.18;33635.94;4993017;28;45366;-79
2022/09/19 01:10:18;;;;;;;;;1.33;1.33;;;;;17.82;50.37;38815.41;4994647;28;45400;-78
2022/09/19 01:12:51;;;;;;;;;2.33;1.33;;;;;17.79;50.30;49882.59;4994890;28;45335;-78
2022/09/19 01:15:33;;;;;;;;;2.33;2.00;;;;;17.76;50.57;59431.84;4993021;28;47625;-79
2022/09/19 01:18:01;;;;;;;;;3.00;2.00;;;;;17.77;50.48;73117.94;4973322;28;45385;-79
2022/09/19 01:20:57;;;;;;;;;1.33;1.33;;;;;17.71;50.51;73111.00;4988495;28;45705;-79
2022/09/19 01:23:57;;;;;;;;;1.00;1.00;;;;;17.67;50.68;73791.38;4987943;28;45323;-79
2022/09/19 01:26:36;;;;;;;;;2.00;2.00;;;;;17.64;50.74;77902.25;4994106;28;45404;-79
2022/09/19 01:29:17;;;;;;;;;1.00;1.00;;;;;17.61;50.95;86140.63;4993836;28;45476;-78
2022/09/19 01:31:52;;;;;;;;;2.00;2.00;;;;;17.60;50.66;90609.59;4994169;28;45310;-79
2022/09/19 01:34:26;;;;;;;;;2.33;1.00;;;;;17.48;51.11;92312.44;4993307;28;45555;-79
2022/09/19 01:37:16;;;;;;;;;1.00;1.00;;;;;17.58;50.96;95771.56;4976106;28;47303;-78
2022/09/19 01:39:46;;;;;;;;;2.00;2.00;;;;;17.54;50.86;94043.53;4994005;28;45497;-79
2022/09/19 01:42:19;;;;;;;;;1.00;1.00;;;;;17.43;51.34;104023.66;4996951;28;45325;-79
2022/09/19 01:44:44;;;;;;;;;2.00;2.00;;;;;17.53;51.20;104731.97;4997513;28;45426;-79
2022/09/19 01:47:21;;;;;;;;;1.33;1.33;;;;;17.50;51.15;107145.19;4996600;28;45368;-79
2022/09/19 01:50:10;;;;;;;;;2.00;1.00;;;;;17.48;51.35;111634.22;4996901;28;45468;-79
2022/09/19 01:53:09;;;;;;;;;1.00;1.00;;;;;17.46;51.52;116476.06;4996670;28;45373;-79
2022/09/19 01:55:45;;;;;;;;;4.00;2.00;;;;;17.44;51.37;119588.44;4997161;28;45376;-79
2022/09/19 01:58:23;;;;;;;;;2.00;2.00;;;;;17.42;51.50;125479.00;4996550;28;47261;-79
2022/09/19 02:01:22;;;;;;;;;1.00;1.00;;;;;17.40;51.29;120620.94;4978979;28;45405;-79
2022/09/19 02:03:54;;;;;;;;;1.67;1.67;;;;;17.39;51.88;132070.41;4996824;28;45363;-79
2022/09/19 02:06:37;;;;;;;;;1.67;1.67;;;;;17.41;51.31;128948.22;4981949;28;45342;-79
2022/09/19 02:09:29;;;;;;;;;2.00;2.00;;;;;17.38;51.46;134155.00;4996414;28;46125;-79
2022/09/19 02:11:59;;;;;;;;;1.00;1.00;;;;;17.42;52.07;139034.00;4996372;28;45365;-79
2022/09/19 02:14:29;;;;;;;;;2.00;2.00;;;;;17.41;52.06;143211.34;4996644;28;45539;-79
2022/09/19 02:17:04;;;;;;;;;2.00;2.00;;;;;17.38;51.88;143902.25;4996424;28;45342;-78
2022/09/19 02:19:43;;;;;;;;;1.00;1.00;;;;;17.39;51.81;144252.00;4996372;28;46586;-78
2022/09/19 02:22:26;;;;;;;;;1.00;1.00;;;;;17.37;52.14;149129.63;4995934;28;45299;-79
2022/09/19 02:24:58;;;;;;;;;1.00;0.00;;;;;17.30;52.07;149463.34;4977806;28;45400;-79
2022/09/19 02:27:29;;;;;;;;;2.00;2.00;;;;;17.32;52.15;150165.13;4996764;28;45266;-79
2022/09/19 02:30:00;;;;;;;;;1.00;1.00;;;;;17.24;52.50;153635.88;4996227;28;45349;-79
2022/09/19 02:32:26;;;;;;;;;1.00;1.00;;;;;17.24;52.51;155034.47;4996145;28;45388;-79
2022/09/19 02:34:55;;;;;;;;;2.00;2.00;;;;;17.22;52.12;153630.66;4996356;28;46163;-79
2022/09/19 02:37:46;;;;;;;;;1.00;1.00;;;;;17.14;52.71;155357.44;4996486;28;45532;-79
2022/09/19 02:40:22;;;;;;;;;2.33;2.33;;;;;17.02;52.81;155325.69;4995962;28;46024;-79
2022/09/19 02:42:48;;;;;;;;;1.67;1.67;;;;;17.06;52.75;155339.00;4996443;28;45397;-71
2022/09/19 02:45:18;;;;;;;;;2.67;2.67;;;;;17.02;53.14;155328.41;4996257;28;45435;-70
2022/09/19 02:48:08;;;;;;;;;2.00;2.00;;;;;16.99;53.05;155321.81;4996259;28;45286;-70
2022/09/19 02:50:59;;;;;;;;;2.33;2.33;;;;;16.94;52.91;155307.28;4995432;28;45459;-70
2022/09/19 02:53:29;;;;;;;;;2.00;2.00;;;;;16.91;53.25;155300.69;4996073;28;45418;-70
2022/09/19 02:56:01;;;;;;;;;4.00;2.00;;;;;16.91;53.43;155300.69;4995998;28;45420;-70
2022/09/19 02:58:33;;;;;;;;;2.00;2.00;;;;;16.92;53.37;155302.00;4979398;28;45391;-70
2022/09/19 03:01:04;;;;;;;;;1.00;1.00;;;;;16.88;53.53;155292.75;4995645;28;46567;-70
2022/09/19 03:06:31;;;;;;;;;3.33;1.33;;;;;16.75;53.68;155259.63;4994928;28;45424;-70
2022/09/19 03:09:00;;;;;;;;;2.00;2.00;;;;;16.76;53.80;155262.25;4975491;28;45386;-70
2022/09/19 03:11:28;;;;;;;;;1.00;1.00;;;;;16.78;53.96;155267.53;4991085;28;46102;-70
2022/09/19 03:13:56;;;;;;;;;2.00;2.00;;;;;16.73;53.89;155254.34;4995746;28;45380;-70
2022/09/19 03:16:27;;;;;;;;;2.33;2.00;;;;;16.71;53.90;155247.75;4996054;28;45362;-70
2022/09/19 03:18:55;;;;;;;;;2.67;1.33;;;;;16.68;54.25;155241.13;4996145;28;45598;-70
2022/09/19 03:21:23;;;;;;;;;2.67;1.67;;;;;16.61;54.11;155223.94;4995758;28;46542;-70
2022/09/19 03:23:52;;;;;;;;;0.00;0.00;;;;;16.60;54.00;155219.97;4995482;28;45270;-70
2022/09/19 03:26:20;;;;;;;;;2.00;2.00;;;;;16.54;54.75;155204.13;4995747;28;45401;-70
2022/09/19 03:28:46;;;;;;;;;2.67;2.00;;;;;16.56;54.61;155209.41;5063951;28;45565;-71
2022/09/19 03:31:11;;;;;;;;;4.00;2.00;;;;;16.51;54.55;155197.53;4995453;28;46121;-70
2022/09/19 03:33:39;;;;;;;;;3.00;3.00;;;;;16.54;54.82;155205.44;4977474;28;45305;-70
2022/09/19 03:36:07;;;;;;;;;3.33;3.00;;;;;16.45;54.72;155182.94;4995848;28;45442;-70
2022/09/19 03:38:44;;;;;;;;;4.00;2.00;;;;;16.58;54.83;155214.72;4975403;28;46105;-70
2022/09/19 03:41:13;;;;;;;;;5.33;4.00;;;;;16.58;54.82;155214.72;4995473;28;46014;-70
2022/09/19 03:43:42;;;;;;;;;3.00;3.00;;;;;16.53;54.68;155202.81;4995372;28;45342;-70
2022/09/19 03:46:10;;;;;;;;;3.00;2.00;;;;;16.53;55.02;155202.81;5006486;28;45393;-70
2022/09/19 03:48:36;;;;;;;;;2.33;2.00;;;;;16.51;54.70;155197.53;5002162;28;45424;-70
2022/09/19 03:51:01;;;;;;;;;3.00;2.00;;;;;16.48;55.04;155189.56;4994392;28;45516;-70
2022/09/19 03:53:27;;;;;;;;;2.33;2.33;;;;;16.45;55.11;155181.66;4995403;28;45397;-70
2022/09/19 03:55:54;;;;;;;;;4.67;3.00;;;;;16.46;55.19;155184.31;4995264;28;45439;-70
2022/09/19 03:58:19;;;;;;;;;2.67;2.67;;;;;16.45;55.54;155182.94;4986617;28;45450;-70
2022/09/19 04:00:45;;;;;;;;;4.00;4.00;;;;;16.45;55.51;155181.66;4972668;28;47141;-70
2022/09/19 04:03:10;;;;;;;;;2.67;2.67;;;;;16.45;55.21;155182.94;4976820;28;45416;-70
2022/09/19 04:05:36;;;;;;;;;2.00;2.00;;;;;16.43;55.09;155176.34;4995238;28;45357;-70
2022/09/19 04:08:01;;;;;;;;;3.00;3.00;;;;;16.45;55.29;155182.94;4993364;28;45326;-70
2022/09/19 04:10:27;;;;;;;;;4.00;4.00;;;;;16.40;55.34;155169.75;4974153;28;45472;-70
2022/09/19 04:12:52;;;;;;;;;3.67;3.67;;;;;16.34;55.60;155152.56;4988747;28;45393;-70
2022/09/19 04:15:18;;;;;;;;;3.00;3.00;;;;;16.31;55.38;155144.66;4995315;28;45448;-70
2022/09/19 04:17:43;;;;;;;;;1.00;1.00;;;;;16.27;55.50;155135.38;4995389;28;45444;-70
2022/09/19 04:20:12;;;;;;;;;3.00;3.00;;;;;16.27;55.47;155134.06;4995053;28;46610;-70
2022/09/19 04:22:37;;;;;;;;;3.00;3.00;;;;;16.34;55.39;155153.91;4995033;28;45286;-70
2022/09/19 04:25:04;;;;;;;;;3.00;3.00;;;;;16.32;56.04;155147.28;4995163;28;45223;-70
2022/09/19 04:27:30;;;;;;;;;2.00;2.00;;;;;16.31;55.64;155144.66;4995382;28;45366;-70
2022/09/19 04:29:55;;;;;;;;;7.00;3.00;;;;;16.29;55.76;155139.34;4994480;28;46224;-70
2022/09/19 04:32:21;;;;;;;;;5.00;4.67;;;;;16.27;55.78;155134.06;4994673;28;45439;-70
2022/09/19 04:34:47;;;;;;;;;3.00;3.00;;;;;16.24;55.91;155127.47;4995088;28;45290;-70
2022/09/19 04:37:15;;;;;;;;;7.00;4.00;;;;;16.10;55.99;155091.78;4995189;28;45502;-70
2022/09/19 04:39:41;;;;;;;;;6.33;5.33;;;;;16.23;56.26;155126.16;4994363;28;47389;-70
2022/09/19 04:42:06;;;;;;;;;4.67;3.33;;;;;16.21;56.03;155120.84;4994641;28;45492;-70
2022/09/19 04:44:31;;;;;;;;;7.67;4.00;;;;;16.22;56.25;155123.53;4994807;28;45812;-79
2022/09/19 04:46:57;;;;;;;;;4.67;4.67;;;;;16.18;56.19;155111.63;4994527;28;45372;-79
2022/09/19 04:49:34;;;;;;;;;5.00;4.00;;;;;16.24;56.03;155127.47;4994564;28;46446;-79
2022/09/19 04:52:00;;;;;;;;;4.00;4.00;;;;;16.21;56.10;155120.84;4994714;28;45330;-79
2022/09/19 04:54:26;;;;;;;;;4.00;4.00;;;;;16.18;56.19;155111.63;4994580;28;45539;-79
2022/09/19 04:56:51;;;;;;;;;3.00;3.00;;;;;16.17;56.21;155110.28;4994888;28;45547;-79
2022/09/19 04:59:16;;;;;;;;;3.00;3.00;;;;;15.99;56.36;155064.06;4994123;28;46035;-79
2022/09/19 05:01:43;;;;;;;;;5.33;4.00;;;;;16.07;56.33;155082.56;4975605;28;45768;-79
2022/09/19 05:04:09;;;;;;;;;6.00;5.00;;;;;16.12;56.33;155095.75;4994425;28;45452;-79
2022/09/19 05:06:34;;;;;;;;;3.00;3.00;;;;;16.13;56.36;155099.75;4993608;28;45286;-79
2022/09/19 05:08:59;;;;;;;;;4.67;4.33;;;;;15.94;56.48;155050.81;4984900;28;46297;-79
2022/09/19 05:11:25;;;;;;;;;3.00;3.00;;;;;16.09;56.33;155087.84;4993698;28;57050;-79
2022/09/19 05:13:52;;;;;;;;;5.67;4.00;;;;;16.03;56.47;155074.59;4993645;28;45362;-79
2022/09/19 05:16:18;;;;;;;;;7.67;5.00;;;;;16.03;56.84;155073.28;4992157;28;45448;-79
2022/09/19 05:18:44;;;;;;;;;3.00;3.00;;;;;16.01;56.74;155069.34;4986775;28;45405;-79
2022/09/19 05:21:12;;;;;;;;;3.33;3.33;;;;;16.01;56.84;155069.34;4992250;28;45272;-79
2022/09/19 05:23:39;;;;;;;;;6.67;4.00;;;;;16.03;56.55;155073.28;4992714;28;45221;-79
2022/09/19 05:26:07;;;;;;;;;3.33;3.00;;;;;15.99;56.72;155062.69;4991104;28;45360;-74
2022/09/19 05:28:33;;;;;;;;;3.00;3.00;;;;;16.01;56.83;155069.34;5024482;28;45563;-85
2022/09/19 05:31:04;;;;;;;;;4.00;3.67;;;;;15.80;56.72;155015.19;4993847;28;45272;-81
2022/09/19 05:33:30;;;;;;;;;4.00;3.00;;;;;15.92;56.67;155045.56;4990651;28;45524;-81
2022/09/19 05:35:59;;;;;;;;;2.00;2.00;;;;;15.97;56.65;155058.78;4993566;28;45595;-81
2022/09/19 05:38:24;;;;;;;;;4.00;4.00;;;;;15.98;56.94;155061.41;4984141;28;46158;-81
2022/09/19 05:40:54;;;;;;;;;4.33;3.00;;;;;15.97;56.66;155057.47;5051907;28;45755;-80
2022/09/19 05:43:20;;;;;;;;;3.00;3.00;;;;;15.96;56.85;155054.78;4985262;28;45599;-79
2022/09/19 05:45:46;;;;;;;;;3.33;3.33;;;;;15.93;56.85;155046.88;4988516;28;45558;-79
2022/09/19 05:48:12;;;;;;;;;3.67;3.67;;;;;15.90;57.08;155038.97;4993123;28;46116;-80
2022/09/19 05:50:37;;;;;;;;;6.33;5.00;;;;;15.89;57.23;155037.59;4993298;28;45282;-80
2022/09/19 05:55:47;;;;;;;;;5.67;3.67;;;;;15.86;57.15;155028.38;4984654;28;45286;-82
2022/09/19 05:58:15;;;;;;;;;3.00;3.00;;;;;15.88;57.48;155033.69;4992723;28;45333;-81
2022/09/19 06:00:40;;;;;;;;;3.00;3.00;;;;;15.81;57.40;155016.50;4992422;28;45300;-81
2022/09/19 06:03:07;;;;;;;;;7.00;4.00;;;;;15.84;57.71;155024.41;4993302;28;45309;-79
2022/09/19 06:05:41;;;;;;;;;4.00;3.00;;;;;15.87;57.60;155031.00;4993776;28;45365;-78
2022/09/19 06:08:07;;;;;;;;;4.67;3.00;;;;;15.89;57.60;155036.31;4962178;28;46399;-84
2022/09/19 06:10:35;;;;;;;;;6.00;6.00;;;;;15.87;57.68;155032.31;4988119;28;46364;-76
2022/09/19 06:13:01;;;;;;;;;4.00;4.00;;;;;15.88;57.65;155035.00;4974895;28;45510;-82
2022/09/19 06:15:26;;;;;;;;;5.00;5.00;;;;;15.82;57.75;155019.13;4983426;28;45401;-83
2022/09/19 06:17:56;;;;;;;;;6.67;4.00;;;;;15.79;57.81;155011.22;4986997;28;47475;-89
2022/09/19 06:20:22;;;;;;;;;3.33;3.33;;;;;15.80;57.92;155015.19;4986982;28;45692;-89
2022/09/19 06:22:47;;;;;;;;;4.00;4.00;;;;;15.89;58.06;155036.31;4989367;28;45507;-87
2022/09/19 06:25:13;;;;;;;;;4.00;4.00;;;;;15.90;57.99;155040.28;4984058;28;45778;-76
2022/09/19 06:27:42;;;;;;;;;7.33;4.00;;;;;15.90;57.97;155040.28;4972814;28;47251;-84
2022/09/19 06:30:08;;;;;;;;;8.00;3.67;;;;;15.88;57.97;155035.00;4988031;28;45412;-77
2022/09/19 06:32:33;;;;;;;;;4.00;4.00;;;;;15.94;58.13;155050.81;4985411;28;45338;-76
2022/09/19 06:34:59;;;;;;;;;6.33;4.00;;;;;15.91;57.83;155041.59;4993507;28;45377;-77
2022/09/19 06:37:24;;;;;;;;;6.00;4.00;;;;;15.97;58.01;155058.78;4976879;28;47256;-78
2022/09/19 06:39:50;;;;;;;;;6.00;4.00;;;;;16.00;57.99;155065.38;4993888;28;45389;-76
2022/09/19 06:42:15;;;;;;;;;5.67;5.67;;;;;15.87;58.19;155032.31;4990311;28;48694;-82
2022/09/19 06:44:40;;;;;;;;;6.67;4.00;;;;;15.99;58.05;155064.06;4991022;28;45527;-76
2022/09/19 06:47:06;;;;;;;;;5.33;5.33;;;;;16.00;58.03;155065.38;4995176;28;45467;-76
2022/09/19 06:49:32;;;;;;;;;4.00;4.00;;;;;15.93;58.24;155046.88;4995316;28;45516;-75
2022/09/19 06:51:57;;;;;;;;;4.33;4.00;;;;;16.06;58.13;155079.88;4995750;28;45478;-75
2022/09/19 06:54:25;;;;;;;;;10.00;7.33;;;;;16.07;57.98;155082.56;4994973;28;45411;-77
2022/09/19 06:56:51;;;;;;;;;9.00;8.33;;;;;16.07;58.17;155083.88;4995498;28;46937;-78
2022/09/19 06:59:18;;;;;;;;;6.67;6.67;;;;;16.10;57.91;155091.78;4986744;28;45365;-77
2022/09/19 07:01:45;;;;;;;;;5.33;5.33;;;;;16.15;58.15;155103.69;4995516;28;45333;-78
2022/09/19 07:04:11;;;;;;;;;6.33;5.33;;;;;16.25;58.05;155130.13;4978167;28;46418;-77
2022/09/19 07:06:36;;;;;;;;;4.00;4.00;;;;;16.25;57.90;155131.44;4994630;28;46991;-76
2022/09/19 07:09:03;;;;;;;;;4.33;4.33;;;;;16.34;57.90;155153.91;5010846;28;45484;-75
2022/09/19 07:11:29;;;;;;;;;8.00;6.33;;;;;16.46;57.37;155185.63;5012943;28;45394;-81
2022/09/19 07:13:54;;;;;;;;;4.33;4.33;;;;;16.48;57.61;155189.56;4984164;28;45390;-84
2022/09/19 07:16:20;;;;;;;;;5.00;5.00;;;;;16.52;57.83;155198.84;4996136;28;45718;-81
2022/09/19 07:18:45;;;;;;;;;8.00;5.00;;;;;16.57;57.63;155213.34;4994873;28;45330;-84
2022/09/19 07:21:11;;;;;;;;;5.50;5.50;;;;;16.63;57.69;155229.22;4993728;28;45551;-85
2022/09/19 07:23:37;;;;;;;;;4.00;4.00;;;;;16.62;57.32;155225.25;4989966;28;45421;-87
2022/09/19 07:26:03;;;;;;;;;4.00;4.00;;;;;16.79;57.44;155268.97;4977636;28;47101;-89
2022/09/19 07:28:29;;;;;;;;;4.00;4.00;;;;;16.84;57.38;155282.16;4995465;28;45511;-89
2022/09/19 07:31:00;;;;;;;;;4.00;4.00;;;;;16.87;57.20;155290.09;4996017;28;45398;-89
2022/09/19 07:33:25;;;;;;;;;7.33;5.00;;;;;16.88;56.93;155294.06;4995604;28;45371;-86
2022/09/19 07:35:53;;;;;;;;;6.33;4.00;;;;;16.98;56.96;155319.19;4989598;28;46107;-86
2022/09/19 07:38:21;;;;;;;;;5.00;3.00;;;;;16.98;56.77;155319.19;5041817;28;45285;-85
2022/09/19 07:40:47;;;;;;;;;6.00;6.00;;;;;17.15;56.92;155361.50;4980320;28;45416;-86
2022/09/19 07:43:14;;;;;;;;;5.33;5.00;;;;;17.28;56.54;155395.88;4995974;28;45565;-86
2022/09/19 07:45:48;;;;;;;;;3.67;3.67;;;;;17.28;56.23;155395.88;4995291;28;46009;-86
2022/09/19 07:48:15;;;;;;;;;4.00;4.00;;;;;17.45;56.52;155440.84;4995131;28;45330;-87
2022/09/19 07:50:40;;;;;;;;;5.00;3.00;;;;;17.48;55.99;155447.44;4995454;28;45432;-86
2022/09/19 07:53:22;;;;;;;;;3.33;3.33;;;;;17.54;56.07;155463.31;4982525;28;45460;-84
2022/09/19 07:55:51;;;;;;;;;4.67;4.00;;;;;17.64;56.46;155488.44;4992565;28;46310;-88
2022/09/19 07:58:18;;;;;;;;;5.00;3.67;;;;;17.60;55.39;155479.16;4983734;28;45384;-87
2022/09/19 08:00:45;;;;;;;;;6.00;4.33;;;;;17.75;55.96;155517.56;4971298;28;45299;-87
2022/09/19 08:03:13;;;;;;;;;4.00;4.00;;;;;17.86;55.63;155545.38;4989248;28;45438;-87
2022/09/19 08:05:42;;;;;;;;;4.00;4.00;;;;;17.97;55.75;155574.47;4994958;28;45483;-86
2022/09/19 08:08:10;;;;;;;;;2.33;2.33;;;;;18.09;55.53;155604.91;4995112;28;45374;-86
2022/09/19 08:10:37;;;;;;;;;2.67;2.67;;;;;18.18;55.37;155627.41;4981952;28;45311;-86
2022/09/19 08:13:04;;;;;;;;;4.00;3.00;;;;;18.28;54.80;155655.19;4974687;28;45306;-86
2022/09/19 08:15:31;;;;;;;;;4.33;4.33;;;;;18.38;54.57;155679.00;4991359;28;46780;-87
2022/09/19 08:17:59;;;;;;;;;3.00;3.00;;;;;18.46;54.26;154997.28;4995186;28;45499;-86
2022/09/19 08:20:29;;;;;;;;;4.67;2.33;;;;;18.73;54.22;148068.66;4994949;28;45846;-86
2022/09/19 08:23:00;;;;;;;;;5.00;3.33;;;;;18.86;53.22;98049.63;4995016;28;45399;-86
2022/09/19 08:25:27;;;;;;;;;5.67;2.33;;;;;18.96;52.75;64780.88;4994583;28;47363;-86
2022/09/19 08:27:55;;;;;;;;;3.67;2.00;;;;;19.02;52.83;66018.78;4981560;28;45326;-86
2022/09/19 08:30:21;;;;;;;;;3.00;3.00;;;;;19.06;52.29;13757.44;4994653;28;45284;-84
2022/09/19 08:32:49;;;;;;;;;2.00;2.00;;;;;19.18;52.20;9559.97;4977282;28;45357;-86
2022/09/19 08:35:16;;;;;;;;;2.00;2.00;;;;;19.26;51.77;-19722.41;4994890;28;46011;-86
2022/09/19 08:37:43;;;;;;;;;1.00;1.00;;;;;19.30;51.20;-19723.47;4994394;28;45424;-85
2022/09/19 08:40:15;;;;;;;;;0.00;0.00;;;;;19.41;50.36;-19726.41;4994782;28;45586;-86
2022/09/19 08:42:51;;;;;;;;;3.00;3.00;;;;;19.46;50.57;-19727.72;4995213;28;45499;-73
2022/09/19 08:45:27;;;;;;;;;1.00;1.00;;;;;19.58;50.68;-19730.81;4994879;28;45501;-73
2022/09/19 08:47:53;;;;;;;;;2.67;0.67;;;;;19.68;49.87;-19733.34;4994459;28;45386;-73
2022/09/19 08:50:31;;;;;;;;;0.00;0.00;;;;;19.79;49.06;-19736.28;4994287;28;45267;-73
2022/09/19 08:53:01;;;;;;;;;3.00;0.00;;;;;19.95;48.67;-19740.53;4994505;28;45678;-73
2022/09/19 08:55:31;;;;;;;;;1.00;0.00;;;;;20.11;48.46;-19744.69;4994694;28;47096;-73
2022/09/19 08:58:02;;;;;;;;;0.00;0.00;;;;;20.13;48.04;-19745.22;4994608;28;45403;-72
2022/09/19 09:00:35;;;;;;;;;0.00;0.00;;;;;20.19;46.67;-19746.81;4994433;28;45468;-72
2022/09/19 09:03:07;;;;;;;;;0.00;0.00;;;;;20.28;46.30;-19748.94;4994770;28;45412;-73
2022/09/19 09:06:08;;;;;;;;;0.00;0.00;;;;;20.22;46.27;-19747.47;4994328;28;45398;-72
2022/09/19 09:08:40;;;;;;;;;0.00;0.00;;;;;20.41;46.32;-19752.41;4914365;28;45442;-73
2022/09/19 09:11:29;;;;;;;;;0.00;0.00;;;;;20.58;45.98;-19756.94;4914504;28;46294;-73
2022/09/19 09:13:58;;;;;;;;;0.00;0.00;;;;;20.72;44.37;-19760.41;4898946;28;45697;-72
2022/09/19 09:16:42;;;;;;;;;0.00;0.00;;;;;20.77;44.11;-19761.75;4964057;28;46769;-73
2022/09/19 09:19:17;;;;;;;;;1.00;0.00;;;;;20.89;43.91;-19764.81;4914306;28;45480;-72
2022/09/19 09:21:59;;;;;;;;;0.00;0.00;;;;;21.02;44.92;-19768.41;4914304;28;45518;-72
2022/09/19 09:24:34;;;;;;;;;0.00;0.00;;;;;21.20;43.70;-19772.94;4915043;28;45579;-72
2022/09/19 09:27:03;;;;;;;;;0.00;0.00;;;;;21.33;43.62;-19776.41;4898045;28;46374;-72
2022/09/19 09:29:40;;;;;;;;;0.00;0.00;;;;;21.42;43.08;-19778.78;4914521;28;45401;-72
2022/09/19 09:32:20;;;;;;;;;0.67;0.00;;;;;21.77;42.38;-19787.84;4914383;28;45461;-72
2022/09/19 09:34:52;;;;;;;;;0.00;0.00;;;;;22.59;41.23;-19809.00;4914509;28;45490;-72
2022/09/19 09:37:24;;;;;;;;;0.00;0.00;;;;;24.24;39.74;-19851.88;4970988;28;46173;-72
2022/09/19 09:40:09;;;;;;;;;0.00;0.00;;;;;26.29;36.06;-19905.00;4914351;28;45524;-72
2022/09/19 09:43:05;;;;;;;;;0.00;0.00;;;;;27.96;33.89;-18245.00;4914092;28;45590;-72
2022/09/19 09:45:35;;;;;;;;;0.00;0.00;;;;;29.11;32.48;-15543.59;4952402;28;45468;-72
2022/09/19 09:48:26;;;;;;;;;0.00;0.00;;;;;30.29;30.71;-11804.63;4993754;28;45755;-73
2022/09/19 09:51:21;;;;;;;;;0.00;0.00;;;;;31.81;29.69;-8050.16;4993814;28;45311;-72
2022/09/19 09:53:50;;;;;;;;;0.00;0.00;;;;;32.93;27.78;-830.28;4972985;28;45355;-72
2022/09/19 09:56:30;;;;;;;;;0.00;0.00;;;;;33.94;26.69;4353.28;4992298;28;45431;-73
2022/09/19 10:05:36;;;;;;;;;0.00;0.00;;;;;33.96;24.74;25992.00;4997079;28;45434;-72
2022/09/19 10:08:30;;;;;;;;;0.00;0.00;;;;;34.85;24.93;22819.34;4997079;28;45359;-73
2022/09/19 10:11:05;;;;;;;;;0.00;0.00;;;;;35.93;23.66;27358.97;4996611;28;45442;-73
2022/09/19 10:13:39;;;;;;;;;0.00;0.00;;;;;36.78;21.92;33970.50;4996450;28;45355;-73
2022/09/19 10:16:06;;;;;;;;;0.00;0.00;;;;;37.33;21.47;38082.25;4997015;28;45365;-71
2022/09/19 10:18:48;;;;;;;;;0.00;0.00;;;;;38.19;21.03;40095.91;5003979;28;45690;-73
2022/09/19 10:21:14;;;;;;;;;0.00;0.00;;;;;38.67;20.07;43072.00;5033171;28;48901;-73
2022/09/19 10:23:48;;;;;;;;;0.00;0.00;;;;;39.00;19.86;44723.50;4975174;28;45527;-73
2022/09/19 10:26:16;;;;;;;;;0.00;0.00;;;;;39.20;19.49;46861.69;4996801;28;45421;-73
2022/09/19 10:28:59;;;;;;;;;1.50;0.00;;;;;39.31;20.08;47971.44;4982924;28;45240;-73
2022/09/19 10:31:34;;;;;;;;;0.00;0.00;;;;;39.38;19.30;49546.69;4996566;28;45664;-71
2022/09/19 10:34:14;;;;;;;;;0.00;0.00;;;;;39.67;19.11;50581.94;4978385;28;45361;-73
2022/09/19 10:36:47;;;;;;;;;0.00;0.00;;;;;39.78;18.92;51661.16;4996572;28;45300;-72
2022/09/19 10:39:14;;;;;;;;;0.00;0.00;;;;;39.94;18.46;52723.03;4996437;28;45458;-73
2022/09/19 10:41:42;;;;;;;;;1.00;0.00;;;;;40.11;18.02;53251.28;5039282;28;46979;-71
2022/09/19 10:44:22;;;;;;;;;0.00;0.00;;;;;40.18;18.75;53067.25;5010461;28;45432;-71
2022/09/19 10:46:58;;;;;;;;;0.00;0.00;;;;;40.35;18.17;54076.22;4996128;28;45475;-71
2022/09/19 10:49:27;;;;;;;;;0.00;0.00;;;;;40.44;18.01;54934.78;4996347;28;45447;-71
2022/09/19 10:51:56;;;;;;;;;0.00;0.00;;;;;40.47;17.72;55658.63;4985911;28;45441;-71
2022/09/19 10:54:41;;;;;;;;;0.00;0.00;;;;;40.36;17.47;56427.66;4992783;28;45368;-71
2022/09/19 10:57:26;;;;;;;;;0.00;0.00;;;;;40.28;17.93;56997.81;4996460;28;45397;-71
2022/09/19 11:00:02;;;;;;;;;0.00;0.00;;;;;40.19;17.67;58016.81;4998038;28;45590;-71
2022/09/19 11:02:28;;;;;;;;;0.00;0.00;;;;;40.04;17.40;58734.59;5006902;28;46423;-73
2022/09/19 11:04:59;;;;;;;;;0.00;0.00;;;;;39.95;17.69;59170.38;4996614;28;45449;-73
2022/09/19 11:07:29;;;;;;;;;0.00;0.00;;;;;39.81;17.40;59625.88;4997092;28;45432;-71
2022/09/19 11:09:59;;;;;;;;;0.00;0.00;;;;;39.67;17.98;59919.19;4997015;28;45410;-71
2022/09/19 11:12:27;;;;;;;;;0.00;0.00;;;;;38.96;17.74;61214.13;4998222;28;46557;-71
2022/09/19 11:14:57;;;;;;;;;0.00;0.00;;;;;38.73;17.86;61449.44;4995259;28;45457;-71
2022/09/19 11:17:30;;;;;;;;;0.00;0.00;;;;;38.32;18.68;62016.94;4987372;28;45533;-70
2022/09/19 11:20:32;;;;;;;;;1.00;0.00;;;;;37.51;18.99;62644.53;4993695;28;45551;-71
2022/09/19 11:23:36;;;;;;;;;0.00;0.00;;;;;37.03;18.97;63103.03;4979132;28;46567;-73
2022/09/19 11:26:20;;;;;;;;;0.25;0.00;;;;;36.48;19.24;63645.09;4981483;28;45465;-72
2022/09/19 11:29:18;;;;;;;;;0.00;0.00;;;;;36.28;19.75;63668.47;4995494;28;45631;-72
2022/09/19 11:32:32;;;;;;;;;0.00;0.00;;;;;35.61;19.96;64460.03;4995467;28;45535;-72
2022/09/19 11:35:27;;;;;;;;;0.25;0.00;;;;;34.99;20.30;64887.63;4989960;28;45673;-71
2022/09/19 11:37:53;;;;;;;;;0.00;0.00;;;;;34.57;20.87;65148.94;4989706;28;45423;-70
2022/09/19 11:40:42;;;;;;;;;0.00;0.00;;;;;34.31;20.93;65055.28;4987993;28;45472;-70
2022/09/19 11:43:30;;;;;;;;;1.00;0.00;;;;;34.28;20.58;65015.72;4915154;28;45569;-70
2022/09/19 11:46:06;;;;;;;;;0.75;0.00;;;;;34.34;20.62;65124.44;4915031;28;46163;-72
2022/09/19 11:48:45;;;;;;;;;0.00;0.00;;;;;34.39;20.44;65209.56;4914567;28;45483;-72
2022/09/19 11:51:19;;;;;;;;;0.25;0.00;;;;;34.42;19.82;65347.34;4915129;28;45492;-72
2022/09/19 11:54:44;;;;;;;;;0.00;0.00;;;;;34.41;19.89;65335.25;4915176;28;45435;-72
2022/09/19 11:57:41;;;;;;;;;0.00;0.00;;;;;34.47;19.76;65327.69;4938313;28;45442;-72
2022/09/19 12:00:13;;;;;;;;;0.00;0.00;;;;;34.43;19.97;65362.19;4948915;28;45363;-72